Zdamen — CRA6504 — position and weather

sailwx.info

Track history (hours):
 
Tides and Currents Weather Stations Pressure Air Temp Water Temp Dewpoint Dewpoint Depression Visibility Wind Speed Wind Dir Waves Ship Positions

Zdamen

Last reported at 2018-Jun-19 16:35 UTC. Time now 2018-Jun-21 16:28 UTC.
Position N 38°42' W 009°11'.

Length 12 m.

Type: Sailing vessel. MMSI: 263951470.

Date/timePositionNaut miles runAvg speedWind from/ knotsBaromVisibWave heightAir tempDewpointWater temp
2018-Jun-19 16:35N 38°42' W 009°11'2 5.0
2018-Jun-19 16:14N 38°41' W 009°13'1 4.7
2018-Jun-19 16:00N 38°42' W 009°14'3 4.4
2018-Jun-19 15:22N 38°41' W 009°18'1 0.3
2018-Jun-19 12:02N 38°41' W 009°19'0 0.4
2018-Jun-19 12:00N 38°41' W 009°19'1 2.0
2018-Jun-19 11:28N 38°41' W 009°18'5 7.8
2018-Jun-19 10:48N 38°41' W 009°11'1 0.0
2018-Jun-17 12:49N 38°42' W 009°10'2 4.2
2018-Jun-17 12:28N 38°41' W 009°12'2 4.1
2018-Jun-17 11:59N 38°41' W 009°15'3 5.5
2018-Jun-17 11:30N 38°41' W 009°18'3 5.7
2018-Jun-17 10:59N 38°41' W 009°14'  
Track history (hours):
 
Tides and Currents Weather Stations Pressure Air Temp Water Temp Dewpoint Dewpoint Depression Visibility Wind Speed Wind Dir Waves Ship Positions

Zdamen

Last reported at 2018-Jun-19 16:35 UTC. Time now 2018-Jun-21 16:28 UTC.
Position N 38°42' W 009°11'.

Length 12 m.

Type: Sailing vessel. MMSI: 263951470.

Date/timePositionNaut miles runAvg speedWind from/ knotsBaromVisibWave heightAir tempDewpointWater temp
2018-Jun-19 16:35N 38°42' W 009°11'2 5.0
2018-Jun-19 16:14N 38°41' W 009°13'1 4.7
2018-Jun-19 16:00N 38°42' W 009°14'3 4.4
2018-Jun-19 15:22N 38°41' W 009°18'1 0.3
2018-Jun-19 12:02N 38°41' W 009°19'0 0.4
2018-Jun-19 12:00N 38°41' W 009°19'1 2.0
2018-Jun-19 11:28N 38°41' W 009°18'5 7.8
2018-Jun-19 10:48N 38°41' W 009°11'1 0.0
2018-Jun-17 12:49N 38°42' W 009°10'2 4.2
2018-Jun-17 12:28N 38°41' W 009°12'2 4.1
2018-Jun-17 11:59N 38°41' W 009°15'3 5.5
2018-Jun-17 11:30N 38°41' W 009°18'3 5.7
2018-Jun-17 10:59N 38°41' W 009°14'  

Dump ship's entire track history